Time;durP1;ratioP1;P1;durP2;ratioP2;P2;SDS_P1;SDS_P2;PMS_P1;PMS_P2;Temp;Humidity;BMP_temperature;BMP_pressure;BME280_temperature;BME280_humidity;BME280_pressure;Samples;Min_cycle;Max_cycle;Signal;HPM_P1;HPM_P2
2023/03/19 00:14:42;;;;;;;33.60;16.10;;;;;;;9.54;56.89;100387.39;682613;1263;138703;-81
2023/03/19 00:29:45;;;;;;;42.40;17.90;;;;;;;9.09;57.18;100385.24;682521;1263;138835;-81
2023/03/19 00:44:48;;;;;;;35.10;18.00;;;;;;;8.63;57.74;100382.23;682400;1263;139434;-79
2023/03/19 00:59:51;;;;;;;54.30;24.30;;;;;;;8.29;58.68;100387.05;682560;1263;138978;-79
2023/03/19 01:14:54;;;;;;;36.10;18.20;;;;;;;8.01;59.20;100394.77;682468;1266;139057;-79
2023/03/19 01:30:02;;;;;;;34.00;17.40;;;;;;;7.79;59.51;100396.91;682476;1272;138758;-80
2023/03/19 01:45:36;;;;;;;56.40;23.10;;;;;;;7.70;60.29;100389.61;682573;1263;138821;-78
2023/03/19 02:01:06;;;;;;;54.60;26.50;;;;;;;7.49;60.91;100391.63;682475;1263;138797;-80
2023/03/19 02:16:11;;;;;;;42.90;21.70;;;;;;;7.39;61.10;100385.79;682431;1277;138548;-79
2023/03/19 02:31:17;;;;;;;47.60;21.00;;;;;;;7.41;61.26;100383.55;682504;1260;138735;-79
2023/03/19 02:46:20;;;;;;;36.60;18.40;;;;;;;7.53;61.10;100388.38;682525;1260;139304;-80
2023/03/19 03:01:24;;;;;;;32.30;17.80;;;;;;;7.29;61.27;100394.09;682602;1259;139369;-81
2023/03/19 03:16:28;;;;;;;34.50;17.30;;;;;;;7.15;61.65;100399.81;682684;1263;138853;-78
2023/03/19 03:31:31;;;;;;;41.60;21.00;;;;;;;7.19;62.03;100405.27;682127;1260;138772;-78
2023/03/19 03:46:34;;;;;;;63.80;29.50;;;;;;;7.33;62.50;100402.73;682326;1261;158216;-82
2023/03/19 04:01:38;;;;;;;59.20;27.90;;;;;;;7.50;62.49;100405.35;682460;1265;139297;-79
2023/03/19 04:16:42;;;;;;;50.30;25.30;;;;;;;7.61;62.82;100415.99;682543;1263;139060;-81
2023/03/19 04:31:46;;;;;;;47.70;25.10;;;;;;;7.82;62.97;100412.22;682512;1261;138785;-81
2023/03/19 04:46:50;;;;;;;38.70;20.30;;;;;;;7.88;62.97;100407.55;682474;1260;139343;-80
2023/03/19 05:01:54;;;;;;;46.10;20.70;;;;;;;7.95;62.76;100400.78;682661;1260;139574;-79
2023/03/19 05:16:59;;;;;;;44.10;22.50;;;;;;;8.05;62.28;100396.38;682567;1259;139288;-80
2023/03/19 05:32:09;;;;;;;120.40;45.70;;;;;;;8.28;61.80;100398.84;682588;1264;139339;-79
2023/03/19 05:47:13;;;;;;;53.30;23.60;;;;;;;8.45;61.86;100411.17;682651;1259;139345;-81
2023/03/19 06:02:21;;;;;;;111.80;47.60;;;;;;;8.58;61.25;100416.06;682600;1262;140045;-80
2023/03/19 06:17:26;;;;;;;97.60;38.10;;;;;;;8.85;61.22;100412.05;682626;1262;139823;-80
2023/03/19 06:32:33;;;;;;;39.20;20.70;;;;;;;9.31;60.54;100412.80;682505;1259;139363;-81
2023/03/19 06:47:42;;;;;;;56.30;26.80;;;;;;;9.79;60.21;100416.45;682460;1262;142226;-84
2023/03/19 07:02:45;;;;;;;75.70;31.90;;;;;;;9.97;59.58;100421.27;682513;1264;139531;-83
2023/03/19 07:17:49;;;;;;;80.60;44.60;;;;;;;10.31;59.59;100455.98;682334;1262;139145;-80
2023/03/19 07:32:53;;;;;;;105.00;50.90;;;;;;;11.20;59.59;100469.54;682312;1262;139505;-81
2023/03/19 07:47:57;;;;;;;60.30;28.90;;;;;;;11.90;59.03;100466.70;682424;1260;139498;-80
2023/03/19 08:03:00;;;;;;;44.10;23.70;;;;;;;12.75;57.62;100470.50;682684;1263;138829;-81
2023/03/19 08:18:04;;;;;;;84.10;39.70;;;;;;;13.45;56.13;100472.14;682424;1262;138847;-82
2023/03/19 08:33:07;;;;;;;46.00;22.50;;;;;;;14.18;55.85;100472.70;682526;1260;138780;-81
2023/03/19 08:48:10;;;;;;;44.30;23.70;;;;;;;14.91;54.46;100462.46;682258;1260;139318;-81
2023/03/19 09:03:15;;;;;;;38.20;22.10;;;;;;;15.95;53.17;100455.70;682416;1262;138843;-81
2023/03/19 09:18:19;;;;;;;42.50;22.20;;;;;;;16.28;52.98;100457.92;682372;1264;139037;-81
2023/03/19 09:33:23;;;;;;;53.00;30.90;;;;;;;16.84;52.10;100454.60;682526;1261;139143;-83
2023/03/19 09:48:37;;;;;;;39.00;22.20;;;;;;;17.65;50.88;100459.83;682320;1264;138829;-81
2023/03/19 10:04:18;;;;;;;47.90;24.50;;;;;;;18.47;51.02;100458.08;682488;1260;138814;-80
2023/03/19 10:19:30;;;;;;;39.00;25.00;;;;;;;19.32;47.14;100444.17;682746;1263;138303;-83
2023/03/19 10:34:44;;;;;;;101.30;48.10;;;;;;;20.20;46.84;100429.17;682587;1267;138623;-81
2023/03/19 10:49:49;;;;;;;43.40;24.00;;;;;;;21.23;46.18;100421.04;682611;1275;139100;-80
2023/03/19 11:05:11;;;;;;;39.10;22.30;;;;;;;21.89;45.14;100408.91;682443;1266;138950;-80
2023/03/19 11:20:36;;;;;;;34.90;20.90;;;;;;;22.16;42.92;100409.30;682719;1262;139553;-81
2023/03/19 11:35:47;;;;;;;29.70;17.40;;;;;;;21.93;42.42;100406.17;682445;1264;138280;-81
2023/03/19 11:51:10;;;;;;;31.70;20.40;;;;;;;22.67;42.32;100388.32;682614;1264;139211;-80
2023/03/19 12:06:32;;;;;;;40.10;21.80;;;;;;;22.62;41.86;100382.95;682480;1262;139847;-79
2023/03/19 12:21:53;;;;;;;31.30;20.40;;;;;;;23.23;41.60;100375.08;682305;1264;139253;-79
2023/03/19 12:36:59;;;;;;;29.90;17.10;;;;;;;24.07;40.40;100365.96;682264;1260;138540;-81
2023/03/19 12:52:17;;;;;;;38.50;20.30;;;;;;;24.24;39.11;100361.36;682249;1265;139116;-79
2023/03/19 13:07:39;;;;;;;39.40;18.60;;;;;;;24.11;38.63;100357.42;682022;1263;138656;-80
2023/03/19 13:22:50;;;;;;;34.50;20.90;;;;;;;24.23;39.46;100343.36;681924;1265;138788;-79
2023/03/19 13:38:05;;;;;;;24.10;14.60;;;;;;;24.53;40.42;100326.52;682176;1265;138716;-79
2023/03/19 13:53:31;;;;;;;29.00;16.00;;;;;;;23.73;39.48;100322.65;681951;1263;139057;-80
2023/03/19 14:08:46;;;;;;;33.10;18.80;;;;;;;22.86;40.08;100313.17;682255;1264;139454;-80
2023/03/19 14:23:55;;;;;;;24.20;14.90;;;;;;;21.97;41.52;100311.86;682144;1266;138360;-81
2023/03/19 14:39:06;;;;;;;163.00;62.50;;;;;;;21.25;42.87;100307.46;682109;1266;139150;-80
2023/03/19 14:54:16;;;;;;;62.70;36.70;;;;;;;20.74;43.82;100305.42;681921;1261;139094;-78
2023/03/19 15:09:31;;;;;;;25.50;14.70;;;;;;;20.37;44.11;100303.21;682109;1262;138270;-79
2023/03/19 15:24:39;;;;;;;27.30;16.60;;;;;;;20.18;43.63;100300.95;681963;1265;138274;-80
2023/03/19 15:39:50;;;;;;;34.90;21.50;;;;;;;20.14;44.37;100297.87;681953;1265;162120;-80
2023/03/19 15:54:55;;;;;;;33.20;17.00;;;;;;;19.74;45.18;100300.13;681982;1264;138689;-81
2023/03/19 16:09:59;;;;;;;25.90;15.50;;;;;;;19.46;45.96;100311.18;681984;1265;138571;-80
2023/03/19 16:25:06;;;;;;;44.90;22.70;;;;;;;18.98;46.96;100320.65;682125;1265;138424;-79
2023/03/19 16:40:13;;;;;;;87.60;42.00;;;;;;;18.48;47.70;100326.56;682107;1265;138684;-80
2023/03/19 16:55:24;;;;;;;61.40;38.10;;;;;;;18.01;48.34;100339.77;682296;1264;138798;-80
2023/03/19 17:10:29;;;;;;;86.00;36.20;;;;;;;17.50;49.44;100353.62;682146;1265;139279;-80
2023/03/19 17:25:32;;;;;;;115.90;43.70;;;;;;;17.22;50.30;100358.48;682179;1265;138588;-82
2023/03/19 17:40:37;;;;;;;52.90;26.70;;;;;;;16.91;50.55;100360.16;682103;1263;138636;-80
2023/03/19 17:55:40;;;;;;;171.20;57.70;;;;;;;16.64;50.94;100360.06;682222;1263;138393;-82
2023/03/19 18:10:44;;;;;;;71.00;31.30;;;;;;;16.37;51.13;100347.64;682162;1263;139151;-80
2023/03/19 18:25:50;;;;;;;119.20;41.40;;;;;;;16.11;51.68;100347.23;682109;1265;138303;-80
2023/03/19 18:40:55;;;;;;;66.40;34.70;;;;;;;15.83;52.28;100343.02;682101;1263;138635;-82
2023/03/19 18:55:59;;;;;;;61.90;32.80;;;;;;;15.83;52.05;100343.61;682342;1264;138502;-82
2023/03/19 19:11:05;;;;;;;55.10;31.30;;;;;;;15.78;52.32;100344.21;682173;1261;138448;-81
2023/03/19 19:26:21;;;;;;;75.90;37.30;;;;;;;15.65;52.73;100350.98;682217;1266;139150;-82
2023/03/19 19:41:25;;;;;;;46.30;25.60;;;;;;;15.58;53.18;100347.42;682239;1263;138434;-81
2023/03/19 19:56:29;;;;;;;75.60;39.30;;;;;;;15.34;53.75;100335.44;682049;1261;138456;-82
2023/03/19 20:11:32;;;;;;;137.80;62.30;;;;;;;15.33;54.03;100343.50;682225;1260;138433;-81
2023/03/19 20:26:36;;;;;;;58.20;32.30;;;;;;;14.95;54.57;100350.96;682034;1264;140015;-80
2023/03/19 20:41:40;;;;;;;70.20;35.70;;;;;;;14.41;55.12;100344.23;682139;1261;138826;-80
2023/03/19 20:56:46;;;;;;;274.90;104.80;;;;;;;14.21;56.10;100351.70;682177;1264;138668;-79
2023/03/19 21:11:51;;;;;;;184.50;80.20;;;;;;;13.88;56.26;100352.79;682023;1260;139406;-83
2023/03/19 21:26:55;;;;;;;245.40;102.40;;;;;;;13.74;56.90;100349.38;682176;1265;138973;-83
2023/03/19 21:42:01;;;;;;;202.20;78.10;;;;;;;13.50;57.60;100349.20;682048;1264;138685;-80
2023/03/19 21:57:04;;;;;;;77.20;34.70;;;;;;;13.31;58.31;100347.84;682373;1264;139438;-80
2023/03/19 22:12:23;;;;;;;139.30;63.10;;;;;;;13.09;59.28;100337.70;682046;1264;138243;-80
2023/03/19 22:27:26;;;;;;;70.60;35.80;;;;;;;12.76;59.54;100327.55;682170;1264;138946;-80
2023/03/19 22:42:29;;;;;;;71.80;35.90;;;;;;;12.60;60.22;100320.48;682152;1264;138664;-80
2023/03/19 22:57:33;;;;;;;71.70;37.00;;;;;;;12.38;60.69;100314.17;682011;1264;138770;-80
2023/03/19 23:12:36;;;;;;;101.60;47.30;;;;;;;12.14;61.24;100310.83;682081;1264;139085;-80
2023/03/19 23:27:40;;;;;;;76.00;36.70;;;;;;;11.84;61.61;100301.65;682104;1260;139096;-80
2023/03/19 23:42:48;;;;;;;178.90;73.20;;;;;;;11.60;61.89;100300.49;682144;1265;139055;-80
2023/03/19 23:57:52;;;;;;;53.70;28.50;;;;;;;11.29;62.11;100294.98;682077;1262;139486;-81
